Time;durP1;ratioP1;P1;durP2;ratioP2;P2;SDS_P1;SDS_P2;PMS_P1;PMS_P2;Temp;Humidity;BMP_temperature;BMP_pressure;BME280_temperature;BME280_humidity;BME280_pressure;Samples;Min_cycle;Max_cycle;Signal;HPM_P1;HPM_P2
2023/07/22 00:00:00;;;;;;;0.70;0.70;;;;;13.10;96000.00;;;;5075980;28;20215;-56
2023/07/22 00:02:29;;;;;;;1.00;0.97;;;;;13.00;95997.00;;;;5075775;28;20199;-57
2023/07/22 00:04:57;;;;;;;1.13;0.90;;;;;13.00;96005.00;;;;5075726;28;20282;-57
2023/07/22 00:07:24;;;;;;;1.00;1.00;;;;;12.90;96000.00;;;;5075842;28;20305;-55
2023/07/22 00:09:52;;;;;;;1.10;1.10;;;;;12.80;96001.00;;;;5075829;28;20694;-55
2023/07/22 00:12:19;;;;;;;0.80;0.80;;;;;12.70;95994.00;;;;5057633;28;20199;-56
2023/07/22 00:14:48;;;;;;;1.13;1.07;;;;;12.80;95999.00;;;;5075537;28;20203;-55
2023/07/22 00:17:15;;;;;;;0.60;0.60;;;;;12.80;95992.00;;;;5075532;28;20233;-55
2023/07/22 00:19:43;;;;;;;0.60;0.60;;;;;12.70;95998.00;;;;5075416;28;20192;-55
2023/07/22 00:22:12;;;;;;;0.93;0.93;;;;;12.70;96000.00;;;;5075552;28;20201;-55
2023/07/22 00:24:39;;;;;;;0.67;0.67;;;;;12.60;96004.00;;;;5057989;28;20646;-55
2023/07/22 00:27:08;;;;;;;0.50;0.50;;;;;12.70;95995.00;;;;5074714;28;20219;-55
2023/07/22 00:29:36;;;;;;;0.67;0.67;;;;;12.60;95998.00;;;;5075149;28;20199;-56
2023/07/22 00:32:08;;;;;;;0.90;0.90;;;;;12.60;95990.00;;;;5075307;28;20191;-55
2023/07/22 00:34:36;;;;;;;0.80;0.80;;;;;12.50;95995.00;;;;5075285;28;20191;-55
2023/07/22 00:37:04;;;;;;;0.77;0.77;;;;;12.40;95996.00;;;;5075200;28;20196;-55
2023/07/22 00:39:31;;;;;;;1.37;1.17;;;;;12.40;96000.00;;;;5075016;28;20670;-55
2023/07/22 00:41:58;;;;;;;0.80;0.80;;;;;12.40;95990.00;;;;5075283;28;20241;-55
2023/07/22 00:44:26;;;;;;;0.57;0.57;;;;;12.40;95995.00;;;;5075507;28;20199;-55
2023/07/22 00:46:55;;;;;;;0.80;0.80;;;;;12.40;95985.00;;;;5056932;28;20218;-55
2023/07/22 00:49:24;;;;;;;1.00;1.00;;;;;12.30;95989.00;;;;5074922;28;20278;-56
2023/07/22 00:51:52;;;;;;;0.73;0.73;;;;;12.30;95993.00;;;;5056900;28;20245;-55
2023/07/22 00:54:19;;;;;;;0.70;0.70;;;;;12.30;95995.00;;;;5074763;28;20688;-55
2023/07/22 00:56:48;;;;;;;0.80;0.80;;;;;12.30;95989.00;;;;5075021;28;20667;-56
2023/07/22 00:59:17;;;;;;;1.00;1.00;;;;;12.40;95982.00;;;;5074983;28;20278;-55
2023/07/22 01:01:44;;;;;;;0.60;0.60;;;;;12.40;95978.00;;;;5074625;28;20780;-55
2023/07/22 01:04:14;;;;;;;0.73;0.73;;;;;12.40;95981.00;;;;5074673;28;20198;-55
2023/07/22 01:06:44;;;;;;;0.80;0.80;;;;;12.00;95985.00;;;;5074672;28;20645;-55
2023/07/22 01:09:13;;;;;;;2.43;0.70;;;;;12.00;95980.00;;;;5057583;28;20200;-57
2023/07/22 01:11:40;;;;;;;0.67;0.67;;;;;12.10;95978.00;;;;5074393;28;20215;-57
2023/07/22 01:14:08;;;;;;;0.60;0.60;;;;;12.10;95972.00;;;;5074621;28;20196;-55
2023/07/22 01:16:36;;;;;;;0.60;0.60;;;;;12.00;95976.00;;;;5074264;28;20695;-55
2023/07/22 01:19:04;;;;;;;0.70;0.70;;;;;12.20;95977.00;;;;5074287;28;20195;-55
2023/07/22 01:21:33;;;;;;;0.80;0.80;;;;;12.10;95977.00;;;;5074366;28;20209;-55
2023/07/22 01:24:02;;;;;;;0.50;0.50;;;;;12.10;95980.00;;;;5073929;28;20191;-55
2023/07/22 01:26:29;;;;;;;1.30;1.27;;;;;12.10;95971.00;;;;5073936;28;20219;-55
2023/07/22 01:29:04;;;;;;;1.10;0.83;;;;;12.20;95972.00;;;;5073737;28;20202;-55
2023/07/22 01:31:32;;;;;;;1.17;1.13;;;;;12.20;95973.00;;;;5073817;28;20646;-55
2023/07/22 01:33:59;;;;;;;1.30;1.20;;;;;12.20;95962.00;;;;5073802;28;20192;-55
2023/07/22 01:36:27;;;;;;;0.73;0.73;;;;;12.30;95973.00;;;;5073389;28;20260;-55
2023/07/22 01:38:54;;;;;;;1.23;1.10;;;;;12.10;95975.00;;;;5073189;28;20680;-55
2023/07/22 01:41:23;;;;;;;0.60;0.60;;;;;12.10;95966.00;;;;5073915;28;20251;-55
2023/07/22 01:43:50;;;;;;;0.80;0.80;;;;;12.00;95956.00;;;;5073804;28;20192;-55
2023/07/22 01:46:18;;;;;;;0.77;0.77;;;;;11.90;95962.00;;;;5073579;28;20222;-56
2023/07/22 01:48:45;;;;;;;0.70;0.70;;;;;11.80;95967.00;;;;5073498;28;20318;-55
2023/07/22 01:51:13;;;;;;;0.70;0.70;;;;;11.80;95970.00;;;;5073626;28;20745;-55
2023/07/22 01:53:40;;;;;;;1.00;1.00;;;;;11.70;95964.00;;;;5073529;28;20191;-55
2023/07/22 01:56:08;;;;;;;0.60;0.60;;;;;11.70;95945.00;;;;5073397;28;20199;-55
2023/07/22 01:58:37;;;;;;;0.70;0.70;;;;;11.60;95963.00;;;;5073388;28;20202;-55
2023/07/22 02:01:04;;;;;;;0.87;0.87;;;;;11.60;95945.00;;;;5073255;28;20211;-57
2023/07/22 02:03:32;;;;;;;0.53;0.53;;;;;11.60;95951.00;;;;5073264;28;20195;-57
2023/07/22 02:06:03;;;;;;;0.60;0.60;;;;;11.70;95966.00;;;;5073153;28;20203;-57
2023/07/22 02:08:31;;;;;;;0.70;0.70;;;;;11.70;95962.00;;;;5055284;28;20278;-57
2023/07/22 02:11:03;;;;;;;0.50;0.50;;;;;11.70;95961.00;;;;5073166;28;20250;-54
2023/07/22 02:13:31;;;;;;;1.60;1.10;;;;;11.80;95962.00;;;;5073692;28;20194;-55
2023/07/22 02:16:00;;;;;;;0.60;0.60;;;;;11.70;95964.00;;;;5073356;28;20192;-55
2023/07/22 02:18:28;;;;;;;0.80;0.80;;;;;11.70;95973.00;;;;5073056;28;20191;-55
2023/07/22 02:20:56;;;;;;;0.70;0.70;;;;;11.50;95956.00;;;;5055052;28;20223;-55
2023/07/22 02:23:23;;;;;;;0.57;0.57;;;;;11.50;95973.00;;;;5072966;28;20187;-55
2023/07/22 02:25:51;;;;;;;0.70;0.70;;;;;11.50;95966.00;;;;5073030;28;20265;-55
2023/07/22 02:28:21;;;;;;;1.23;1.03;;;;;11.50;95962.00;;;;5072854;28;20690;-55
2023/07/22 02:30:48;;;;;;;0.73;0.73;;;;;11.30;95975.00;;;;5094055;22;20305;-54
2023/07/22 02:33:17;;;;;;;0.50;0.50;;;;;11.30;95984.00;;;;5094054;28;20190;-54
2023/07/22 02:35:45;;;;;;;0.57;0.57;;;;;11.30;95980.00;;;;5093542;28;20190;-55
2023/07/22 02:38:14;;;;;;;0.70;0.70;;;;;11.40;95987.00;;;;5094300;28;20535;-55
2023/07/22 02:40:42;;;;;;;0.70;0.70;;;;;11.40;95981.00;;;;5093699;28;20289;-53
2023/07/22 02:43:09;;;;;;;0.53;0.53;;;;;11.50;95979.00;;;;5093793;28;20232;-53
2023/07/22 02:45:37;;;;;;;0.70;0.70;;;;;11.40;95970.00;;;;5093291;28;20190;-53
2023/07/22 02:48:05;;;;;;;0.60;0.60;;;;;11.40;95975.00;;;;5092830;28;20219;-53
2023/07/22 02:50:34;;;;;;;0.57;0.57;;;;;11.40;95976.00;;;;5075008;28;20219;-53
2023/07/22 02:53:01;;;;;;;0.90;0.90;;;;;11.30;95973.00;;;;5093181;28;20183;-53
2023/07/22 02:55:29;;;;;;;0.80;0.80;;;;;11.30;95965.00;;;;5093392;28;20664;-54
2023/07/22 02:57:56;;;;;;;0.50;0.50;;;;;11.30;95972.00;;;;5093393;28;20195;-54
2023/07/22 03:00:24;;;;;;;2.90;1.07;;;;;11.40;95962.00;;;;5093018;28;20221;-54
2023/07/22 03:02:52;;;;;;;0.97;0.97;;;;;11.30;95966.00;;;;5093186;28;20274;-54
2023/07/22 03:05:21;;;;;;;0.53;0.53;;;;;11.30;95967.00;;;;5092985;28;20206;-55
2023/07/22 03:07:49;;;;;;;1.43;1.33;;;;;11.30;95956.00;;;;5093165;28;20221;-55
2023/07/22 03:10:17;;;;;;;0.70;0.70;;;;;11.30;95965.00;;;;5092845;28;20712;-55
2023/07/22 03:12:44;;;;;;;0.83;0.83;;;;;11.40;95957.00;;;;5093491;28;20197;-54
2023/07/22 03:15:12;;;;;;;0.60;0.60;;;;;11.40;95956.00;;;;5092944;28;20198;-54
2023/07/22 03:17:41;;;;;;;1.27;0.90;;;;;11.30;95954.00;;;;5092857;28;20190;-55
2023/07/22 03:20:14;;;;;;;0.70;0.70;;;;;11.00;95958.00;;;;5092771;28;20215;-55
2023/07/22 03:22:41;;;;;;;0.50;0.50;;;;;11.00;95955.00;;;;5092998;28;20731;-54
2023/07/22 03:25:11;;;;;;;0.90;0.90;;;;;11.10;95956.00;;;;5093064;28;20238;-55
2023/07/22 03:27:39;;;;;;;0.53;0.53;;;;;11.10;95967.00;;;;5092985;28;20226;-55
2023/07/22 03:30:07;;;;;;;0.60;0.60;;;;;11.20;95963.00;;;;5074449;28;20202;-54
2023/07/22 03:32:35;;;;;;;0.83;0.83;;;;;11.20;95954.00;;;;5093014;28;20183;-54
2023/07/22 03:35:03;;;;;;;0.83;0.83;;;;;11.30;95954.00;;;;5092706;28;20183;-54
2023/07/22 03:37:31;;;;;;;0.70;0.70;;;;;11.40;95960.00;;;;5092666;28;20226;-54
2023/07/22 03:39:59;;;;;;;1.00;1.00;;;;;11.30;95958.00;;;;5092427;28;20669;-54
2023/07/22 03:42:28;;;;;;;0.70;0.70;;;;;11.40;95965.00;;;;5092835;28;20730;-54
2023/07/22 03:44:56;;;;;;;0.90;0.90;;;;;11.30;95960.00;;;;5092541;28;20191;-54
2023/07/22 03:47:23;;;;;;;0.73;0.73;;;;;11.20;95961.00;;;;5092426;28;20685;-55
2023/07/22 03:49:50;;;;;;;0.70;0.70;;;;;11.30;95962.00;;;;5092486;28;20202;-55
2023/07/22 03:52:18;;;;;;;0.57;0.57;;;;;11.30;95967.00;;;;5092752;28;20715;-55
2023/07/22 03:54:46;;;;;;;0.87;0.87;;;;;11.20;95967.00;;;;5092536;28;20194;-55
2023/07/22 03:57:13;;;;;;;0.60;0.60;;;;;11.10;95959.00;;;;5092557;28;20187;-53
2023/07/22 03:59:42;;;;;;;0.60;0.60;;;;;11.10;95966.00;;;;5092412;28;20684;-55
2023/07/22 04:02:09;;;;;;;0.50;0.50;;;;;11.00;95959.00;;;;5095824;28;20215;-54
2023/07/22 04:04:37;;;;;;;0.50;0.50;;;;;11.10;95953.00;;;;5096265;28;20195;-54
2023/07/22 04:07:07;;;;;;;0.80;0.80;;;;;11.10;95952.00;;;;5077768;28;20250;-55
2023/07/22 04:09:35;;;;;;;1.20;1.20;;;;;11.10;95945.00;;;;5095949;28;20179;-54
2023/07/22 04:12:03;;;;;;;1.03;1.03;;;;;11.10;95953.00;;;;5095837;28;20260;-54
2023/07/22 04:14:31;;;;;;;0.70;0.70;;;;;11.10;95950.00;;;;5095925;28;20305;-54
2023/07/22 04:17:00;;;;;;;0.93;0.93;;;;;11.10;95949.00;;;;5095850;28;20197;-54
2023/07/22 04:19:27;;;;;;;1.27;1.27;;;;;11.10;95949.00;;;;5077548;28;20202;-54
2023/07/22 04:21:54;;;;;;;0.90;0.90;;;;;11.10;95951.00;;;;5095694;28;20207;-54
2023/07/22 04:24:22;;;;;;;1.00;1.00;;;;;11.20;95945.00;;;;5095969;28;20640;-54
2023/07/22 04:26:50;;;;;;;0.83;0.83;;;;;11.20;95938.00;;;;5095885;28;20609;-54
2023/07/22 04:29:17;;;;;;;0.97;0.97;;;;;11.20;95943.00;;;;5095914;28;20553;-54
2023/07/22 04:31:45;;;;;;;0.60;0.60;;;;;11.30;95941.00;;;;5095649;28;20653;-54
2023/07/22 04:34:13;;;;;;;0.60;0.60;;;;;11.30;95938.00;;;;5095495;28;20187;-55
2023/07/22 04:36:41;;;;;;;0.60;0.60;;;;;11.40;95948.00;;;;5095440;28;20199;-56
2023/07/22 04:39:09;;;;;;;1.30;1.27;;;;;11.30;95945.00;;;;5095676;28;20187;-54
2023/07/22 04:41:36;;;;;;;0.60;0.60;;;;;11.50;95952.00;;;;5077225;28;20702;-54
2023/07/22 04:44:04;;;;;;;0.83;0.83;;;;;11.40;95953.00;;;;5095337;28;20692;-54
2023/07/22 04:46:31;;;;;;;0.70;0.70;;;;;11.40;95946.00;;;;5095313;28;20191;-54
2023/07/22 04:48:59;;;;;;;2.97;1.33;;;;;11.40;95953.00;;;;5095196;28;20213;-54
2023/07/22 04:51:27;;;;;;;0.80;0.80;;;;;11.40;95952.00;;;;5095260;28;20236;-54
2023/07/22 04:53:55;;;;;;;0.50;0.50;;;;;11.40;95960.00;;;;5095437;28;20195;-53
2023/07/22 04:56:22;;;;;;;0.60;0.60;;;;;11.30;95958.00;;;;5095019;28;20202;-54
2023/07/22 04:58:50;;;;;;;0.93;0.93;;;;;11.40;95962.00;;;;5095285;28;20558;-54
2023/07/22 05:01:17;;;;;;;0.60;0.60;;;;;11.50;95963.00;;;;5095247;28;20243;-54
2023/07/22 05:03:45;;;;;;;0.50;0.50;;;;;11.60;95956.00;;;;5094954;28;20273;-55
2023/07/22 05:06:13;;;;;;;1.23;1.13;;;;;11.80;95964.00;;;;5095077;28;20202;-55
2023/07/22 05:08:42;;;;;;;1.00;1.00;;;;;11.80;95966.00;;;;5095365;28;20214;-55
2023/07/22 05:11:10;;;;;;;0.87;0.87;;;;;11.80;95965.00;;;;5094619;28;20711;-53
2023/07/22 05:13:37;;;;;;;0.50;0.50;;;;;11.90;95958.00;;;;5094606;28;20195;-53
2023/07/22 05:16:05;;;;;;;15.50;1.10;;;;;12.00;95953.00;;;;5094731;28;20221;-54
2023/07/22 05:18:32;;;;;;;0.80;0.80;;;;;12.10;95967.00;;;;5094849;28;20668;-54
2023/07/22 05:20:59;;;;;;;0.63;0.63;;;;;12.10;95967.00;;;;5094815;28;20271;-53
2023/07/22 05:23:27;;;;;;;0.70;0.70;;;;;12.20;95970.00;;;;5094863;28;20199;-55
2023/07/22 05:25:56;;;;;;;0.77;0.77;;;;;12.20;95972.00;;;;5094695;28;20604;-54
2023/07/22 05:28:23;;;;;;;1.07;1.03;;;;;12.30;95961.00;;;;5094238;28;20217;-54
2023/07/22 05:30:51;;;;;;;0.73;0.73;;;;;12.40;95970.00;;;;5094279;28;20229;-54
2023/07/22 05:33:18;;;;;;;0.80;0.80;;;;;12.50;95964.00;;;;5076084;28;20198;-54
2023/07/22 05:35:45;;;;;;;1.03;1.03;;;;;12.60;95972.00;;;;5094246;28;20688;-54
2023/07/22 05:38:13;;;;;;;0.60;0.60;;;;;12.70;95967.00;;;;5094149;28;20195;-54
2023/07/22 05:40:40;;;;;;;1.23;1.00;;;;;12.80;95975.00;;;;5094218;28;20207;-54
2023/07/22 05:43:09;;;;;;;3.00;1.10;;;;;12.90;95979.00;;;;5094809;28;20201;-54
2023/07/22 05:45:36;;;;;;;0.60;0.60;;;;;12.90;95979.00;;;;5094798;28;20666;-54
2023/07/22 05:48:04;;;;;;;0.60;0.60;;;;;13.00;95979.00;;;;5093947;28;20222;-54
2023/07/22 05:50:32;;;;;;;0.90;0.90;;;;;13.10;95983.00;;;;5093831;28;20559;-54
2023/07/22 05:52:59;;;;;;;0.60;0.60;;;;;13.20;95986.00;;;;5093825;28;20248;-54
2023/07/22 05:55:27;;;;;;;1.00;1.00;;;;;13.30;95987.00;;;;5093877;28;20201;-54
2023/07/22 05:57:55;;;;;;;2.17;1.23;;;;;13.40;95978.00;;;;5094902;28;20507;-54
2023/07/22 06:00:23;;;;;;;0.53;0.53;;;;;13.60;95989.00;;;;5075502;28;20588;-54
2023/07/22 06:02:51;;;;;;;0.77;0.77;;;;;13.80;95986.00;;;;5093947;28;20658;-54
2023/07/22 06:05:18;;;;;;;0.83;0.83;;;;;13.90;95994.00;;;;5093769;28;20207;-54
2023/07/22 06:07:46;;;;;;;0.70;0.70;;;;;14.10;95984.00;;;;5076138;28;20218;-54
2023/07/22 06:10:13;;;;;;;0.50;0.50;;;;;14.20;95997.00;;;;5075377;28;20222;-53
2023/07/22 06:12:41;;;;;;;0.97;0.97;;;;;14.40;95994.00;;;;5093491;28;20198;-54
2023/07/22 06:15:09;;;;;;;0.80;0.80;;;;;14.60;95990.00;;;;5093547;28;20197;-54
2023/07/22 06:17:38;;;;;;;0.87;0.87;;;;;14.70;95996.00;;;;5093467;28;20190;-54
2023/07/22 06:20:06;;;;;;;1.20;1.20;;;;;14.90;95997.00;;;;5093416;28;20198;-54
2023/07/22 06:22:34;;;;;;;0.63;0.63;;;;;15.00;95995.00;;;;5093223;28;20197;-54
2023/07/22 06:25:01;;;;;;;0.80;0.80;;;;;15.10;95992.00;;;;5093188;28;20199;-54
2023/07/22 06:27:29;;;;;;;1.07;1.07;;;;;15.30;95989.00;;;;5093287;28;20658;-54
2023/07/22 06:29:58;;;;;;;0.90;0.90;;;;;15.40;95996.00;;;;5093207;28;20195;-54
2023/07/22 06:32:25;;;;;;;0.70;0.70;;;;;15.60;95995.00;;;;5093200;28;20194;-54
2023/07/22 06:34:54;;;;;;;0.57;0.57;;;;;15.80;95997.00;;;;5093261;28;20191;-54
2023/07/22 06:37:21;;;;;;;0.97;0.97;;;;;15.90;95997.00;;;;5093147;28;20194;-54
2023/07/22 06:39:49;;;;;;;0.83;0.83;;;;;16.10;96000.00;;;;5092941;28;20190;-54
2023/07/22 06:42:16;;;;;;;0.67;0.67;;;;;16.30;95998.00;;;;5093139;28;20681;-54
2023/07/22 06:44:43;;;;;;;0.77;0.77;;;;;16.40;95996.00;;;;5093536;28;20202;-54
2023/07/22 06:47:10;;;;;;;1.70;1.30;;;;;16.70;95997.00;;;;5093325;28;20189;-54
2023/07/22 06:49:38;;;;;;;1.27;1.17;;;;;16.80;96002.00;;;;5092857;28;20577;-54
2023/07/22 06:52:08;;;;;;;0.93;0.93;;;;;17.20;95996.00;;;;5093139;28;20651;-55
2023/07/22 06:54:35;;;;;;;0.70;0.70;;;;;17.20;96000.00;;;;5092855;28;20240;-54
2023/07/22 06:57:05;;;;;;;0.67;0.67;;;;;17.40;96002.00;;;;5093004;28;20195;-55
2023/07/22 06:59:33;;;;;;;0.73;0.73;;;;;17.40;96000.00;;;;5092834;28;20182;-54
2023/07/22 07:02:00;;;;;;;0.50;0.50;;;;;17.60;96005.00;;;;5092926;28;20218;-54
2023/07/22 07:04:28;;;;;;;0.60;0.60;;;;;17.70;96007.00;;;;5092941;28;20183;-54
2023/07/22 07:06:55;;;;;;;0.60;0.60;;;;;17.70;96003.00;;;;5092888;28;20195;-54
2023/07/22 07:09:25;;;;;;;0.73;0.70;;;;;17.60;96013.00;;;;5092723;28;20214;-54
2023/07/22 07:11:52;;;;;;;0.83;0.83;;;;;17.90;96004.00;;;;5092881;28;20228;-54
2023/07/22 07:14:20;;;;;;;0.50;0.50;;;;;17.80;95998.00;;;;5092776;28;20229;-54
2023/07/22 07:16:47;;;;;;;0.70;0.70;;;;;18.00;96008.00;;;;5092824;28;20262;-54
2023/07/22 07:19:15;;;;;;;0.63;0.63;;;;;18.10;96005.00;;;;5093000;28;20183;-54
2023/07/22 07:21:42;;;;;;;0.70;0.70;;;;;18.20;96012.00;;;;5092704;28;20310;-54
2023/07/22 07:24:09;;;;;;;0.70;0.70;;;;;18.40;96010.00;;;;5092704;28;20206;-54
2023/07/22 07:26:38;;;;;;;0.60;0.60;;;;;18.50;96022.00;;;;5092729;28;20219;-54
2023/07/22 07:29:06;;;;;;;0.50;0.50;;;;;18.50;96015.00;;;;5092615;28;20219;-54
2023/07/22 07:31:33;;;;;;;0.83;0.83;;;;;18.40;96026.00;;;;5092425;28;20224;-54
2023/07/22 07:34:01;;;;;;;0.60;0.60;;;;;18.40;96029.00;;;;5092597;28;20195;-54
2023/07/22 07:36:28;;;;;;;0.60;0.60;;;;;18.30;96027.00;;;;5095444;28;20191;-54
2023/07/22 07:38:55;;;;;;;0.83;0.83;;;;;18.40;96029.00;;;;5096479;28;20191;-54
2023/07/22 07:41:23;;;;;;;0.50;0.50;;;;;18.40;96020.00;;;;5096348;28;20230;-54
2023/07/22 07:43:52;;;;;;;0.40;0.40;;;;;18.60;96024.00;;;;5096239;28;20191;-54
2023/07/22 07:46:21;;;;;;;0.83;0.83;;;;;18.80;96016.00;;;;5096173;28;20190;-54
2023/07/22 07:48:51;;;;;;;0.50;0.50;;;;;18.80;96024.00;;;;5096204;28;20215;-53
2023/07/22 07:51:20;;;;;;;0.90;0.90;;;;;19.00;96032.00;;;;5096084;28;20218;-54
2023/07/22 07:53:48;;;;;;;0.60;0.60;;;;;19.00;96024.00;;;;5096260;28;20195;-54
2023/07/22 07:56:17;;;;;;;0.40;0.40;;;;;19.30;96032.00;;;;5096224;28;20604;-54
2023/07/22 07:58:45;;;;;;;0.60;0.60;;;;;19.30;96023.00;;;;5095891;28;20187;-54
2023/07/22 08:01:14;;;;;;;0.57;0.57;;;;;19.60;96012.00;;;;5095887;28;20211;-53
2023/07/22 08:03:43;;;;;;;0.50;0.50;;;;;19.80;96011.00;;;;5096163;28;20198;-54
2023/07/22 08:06:11;;;;;;;1.60;1.00;;;;;19.70;96014.00;;;;5095913;28;20247;-54
2023/07/22 08:08:39;;;;;;;0.50;0.50;;;;;20.00;96020.00;;;;5095858;28;20272;-54
2023/07/22 08:11:08;;;;;;;0.50;0.50;;;;;20.20;96008.00;;;;5095998;28;20612;-54
2023/07/22 08:13:36;;;;;;;0.50;0.50;;;;;20.00;96029.00;;;;5095797;28;20320;-54
2023/07/22 08:16:04;;;;;;;0.50;0.50;;;;;20.00;96020.00;;;;5077588;28;20202;-54
2023/07/22 08:18:34;;;;;;;0.60;0.60;;;;;19.70;96030.00;;;;5095984;28;20179;-54
2023/07/22 08:21:03;;;;;;;0.73;0.73;;;;;19.70;96032.00;;;;5095867;28;20229;-54
2023/07/22 08:23:31;;;;;;;0.40;0.40;;;;;19.60;96035.00;;;;5096125;28;20191;-54
2023/07/22 08:25:58;;;;;;;1.13;1.03;;;;;19.40;96035.00;;;;5095801;28;20528;-54
2023/07/22 08:28:26;;;;;;;0.63;0.63;;;;;19.50;96034.00;;;;5095442;28;20215;-54
2023/07/22 08:30:56;;;;;;;3.70;1.13;;;;;19.50;96031.00;;;;5095700;28;20720;-55
2023/07/22 08:33:24;;;;;;;0.60;0.60;;;;;19.50;96036.00;;;;5095846;28;20422;-53
2023/07/22 08:35:54;;;;;;;0.40;0.40;;;;;19.80;96033.00;;;;5095652;28;20197;-54
2023/07/22 08:38:22;;;;;;;0.67;0.67;;;;;19.60;96037.00;;;;5095589;28;20191;-54
2023/07/22 08:40:51;;;;;;;1.03;1.03;;;;;19.60;96041.00;;;;5095413;28;20634;-55
2023/07/22 08:43:22;;;;;;;0.57;0.57;;;;;19.40;96032.00;;;;5095489;28;20270;-53
2023/07/22 08:45:52;;;;;;;1.00;1.00;;;;;19.50;96035.00;;;;5095373;28;20656;-54
2023/07/22 08:48:22;;;;;;;0.80;0.80;;;;;19.50;96040.00;;;;5096066;28;20200;-54
2023/07/22 08:50:54;;;;;;;0.80;0.80;;;;;19.50;96031.00;;;;5096265;28;20218;-55
2023/07/22 08:53:23;;;;;;;0.63;0.53;;;;;19.60;96032.00;;;;5077674;28;20187;-52
2023/07/22 08:55:51;;;;;;;0.50;0.50;;;;;19.80;96031.00;;;;5095516;28;20223;-54
2023/07/22 08:58:19;;;;;;;0.60;0.60;;;;;20.00;96023.00;;;;5095170;28;20198;-54
2023/07/22 09:00:48;;;;;;;0.63;0.63;;;;;20.40;96029.00;;;;5095333;28;20246;-55
2023/07/22 09:03:17;;;;;;;0.90;0.90;;;;;20.20;96025.00;;;;5095047;28;20261;-54
2023/07/22 09:05:46;;;;;;;0.40;0.40;;;;;20.20;96012.00;;;;5076902;28;20210;-54
2023/07/22 09:08:17;;;;;;;0.70;0.70;;;;;20.80;96012.00;;;;5095029;28;20215;-55
2023/07/22 09:10:45;;;;;;;0.87;0.87;;;;;20.90;96022.00;;;;5094964;28;20227;-55
2023/07/22 09:13:14;;;;;;;0.70;0.70;;;;;21.10;96021.00;;;;5095972;28;20225;-58
2023/07/22 09:15:42;;;;;;;0.70;0.70;;;;;21.20;96013.00;;;;5096026;28;20273;-54
2023/07/22 09:18:09;;;;;;;0.60;0.60;;;;;21.40;96025.00;;;;5096858;28;20194;-54
2023/07/22 09:20:37;;;;;;;0.90;0.85;;;;;21.20;96015.00;;;;5096346;28;20210;-53
2023/07/22 09:23:05;;;;;;;0.52;0.52;;;;;21.20;96013.00;;;;5076451;28;20812;-60
2023/07/22 09:25:34;;;;;;;0.50;0.50;;;;;21.00;96022.00;;;;5094561;28;20191;-54
2023/07/22 09:28:02;;;;;;;0.50;0.50;;;;;21.20;96015.00;;;;5094578;28;20197;-55
2023/07/22 09:30:32;;;;;;;0.97;0.97;;;;;21.00;96031.00;;;;5094316;28;20219;-54
2023/07/22 09:33:00;;;;;;;0.50;0.50;;;;;20.80;96033.00;;;;5094435;28;20191;-54
2023/07/22 09:35:29;;;;;;;0.60;0.60;;;;;20.80;96028.00;;;;5094438;28;20247;-54
2023/07/22 09:37:58;;;;;;;0.53;0.53;;;;;20.50;96025.00;;;;5094677;28;20191;-54
2023/07/22 09:40:27;;;;;;;0.53;0.53;;;;;20.90;96012.00;;;;5094345;28;20253;-55
2023/07/22 09:42:57;;;;;;;1.27;0.90;;;;;21.20;96018.00;;;;5094638;28;20191;-53
2023/07/22 09:45:26;;;;;;;0.65;0.65;;;;;21.10;96027.00;;;;5094521;28;20193;-54
2023/07/22 09:47:56;;;;;;;0.55;0.55;;;;;20.90;96024.00;;;;5094193;28;20287;-54
2023/07/22 09:50:26;;;;;;;0.40;0.40;;;;;21.00;96028.00;;;;5094076;28;20223;-54
2023/07/22 09:52:54;;;;;;;0.70;0.70;;;;;20.60;96025.00;;;;5094689;28;20269;-55
2023/07/22 09:55:23;;;;;;;1.27;1.27;;;;;20.70;96025.00;;;;5094115;28;20222;-55
2023/07/22 09:57:56;;;;;;;0.60;0.60;;;;;20.90;96013.00;;;;5094081;28;20541;-55
2023/07/22 10:00:28;;;;;;;0.63;0.63;;;;;21.10;96021.00;;;;5094194;28;20616;-54
2023/07/22 10:02:59;;;;;;;0.50;0.50;;;;;21.00;96027.00;;;;5094066;28;20561;-54
2023/07/22 10:05:28;;;;;;;0.60;0.60;;;;;20.60;96013.00;;;;5094093;28;20175;-54
2023/07/22 10:07:58;;;;;;;0.60;0.60;;;;;20.50;96008.00;;;;5093675;28;20226;-55
2023/07/22 10:10:31;;;;;;;0.83;0.83;;;;;21.10;96016.00;;;;5093642;28;20277;-54
2023/07/22 10:13:00;;;;;;;1.17;1.17;;;;;21.00;96008.00;;;;5093673;28;20180;-54
2023/07/22 10:15:30;;;;;;;0.60;0.60;;;;;21.30;95992.00;;;;5093752;28;20191;-54
2023/07/22 10:17:58;;;;;;;0.60;0.60;;;;;21.20;96014.00;;;;5093757;28;20194;-55
2023/07/22 10:20:26;;;;;;;0.90;0.60;;;;;21.40;96022.00;;;;5075105;28;20211;-53
2023/07/22 10:22:54;;;;;;;1.53;1.43;;;;;21.50;96018.00;;;;5093243;28;20262;-55
2023/07/22 10:25:22;;;;;;;0.40;0.40;;;;;21.30;96023.00;;;;5093683;28;20190;-57
2023/07/22 10:27:50;;;;;;;1.27;0.93;;;;;21.00;96019.00;;;;5093211;28;20571;-55
2023/07/22 10:30:20;;;;;;;0.70;0.70;;;;;20.90;96019.00;;;;5092978;28;20226;-55
2023/07/22 10:32:49;;;;;;;0.50;0.50;;;;;20.90;96012.00;;;;5093436;28;20179;-55
2023/07/22 10:35:23;;;;;;;0.80;0.80;;;;;21.00;96014.00;;;;5093043;28;20195;-54
2023/07/22 10:37:53;;;;;;;0.68;0.68;;;;;20.90;96017.00;;;;5093520;28;20213;-54
2023/07/22 10:40:26;;;;;;;0.50;0.50;;;;;20.90;96002.00;;;;5092979;28;20703;-53
2023/07/22 10:42:55;;;;;;;0.90;0.90;;;;;21.50;96002.00;;;;5093493;28;20210;-53
2023/07/22 10:45:28;;;;;;;0.60;0.60;;;;;21.30;96002.00;;;;5092989;28;20198;-53
2023/07/22 10:48:06;;;;;;;1.02;1.02;;;;;21.30;96015.00;;;;5093120;28;20175;-53
2023/07/22 10:50:46;;;;;;;0.50;0.50;;;;;21.60;96000.00;;;;5092988;28;20217;-53
2023/07/22 10:53:20;;;;;;;0.90;0.90;;;;;22.00;95991.00;;;;5093080;28;20546;-53
2023/07/22 10:56:07;;;;;;;0.50;0.50;;;;;21.80;96002.00;;;;5092758;28;20175;-54
2023/07/22 10:58:56;;;;;;;0.82;0.73;;;;;21.90;96001.00;;;;5092677;28;20724;-54
2023/07/22 11:01:31;;;;;;;0.70;0.70;;;;;22.00;95975.00;;;;5093000;28;20604;-54
2023/07/22 11:04:10;;;;;;;0.50;0.50;;;;;22.10;95975.00;;;;5092856;28;20284;-54
2023/07/22 11:06:40;;;;;;;0.60;0.60;;;;;22.60;96010.00;;;;5092761;28;20183;-54
2023/07/22 11:09:07;;;;;;;0.50;0.50;;;;;21.90;95992.00;;;;5092842;28;20191;-54
2023/07/22 11:11:39;;;;;;;0.52;0.52;;;;;22.20;95977.00;;;;5096822;28;20203;-55
2023/07/22 11:14:17;;;;;;;0.50;0.50;;;;;22.30;95981.00;;;;5096901;28;20195;-54
2023/07/22 11:16:47;;;;;;;0.70;0.70;;;;;22.50;95972.00;;;;5097073;28;20190;-54
2023/07/22 11:19:15;;;;;;;0.40;0.40;;;;;22.70;95963.00;;;;5096805;28;20216;-54
2023/07/22 11:21:43;;;;;;;0.60;0.60;;;;;22.60;95949.00;;;;5096942;28;20213;-55
2023/07/22 11:24:10;;;;;;;0.47;0.47;;;;;22.80;95970.00;;;;5096686;28;20191;-55
2023/07/22 11:26:39;;;;;;;0.35;0.35;;;;;22.70;95942.00;;;;5096882;28;20195;-54
2023/07/22 11:29:08;;;;;;;0.43;0.43;;;;;22.90;95941.00;;;;5096574;28;20198;-55
2023/07/22 11:31:37;;;;;;;0.60;0.60;;;;;23.50;95926.00;;;;5096346;28;20705;-54
2023/07/22 11:34:06;;;;;;;0.80;0.80;;;;;22.90;95931.00;;;;5096889;28;20187;-54
2023/07/22 11:36:35;;;;;;;0.77;0.77;;;;;22.70;95945.00;;;;5096400;28;20274;-54
2023/07/22 11:39:04;;;;;;;1.17;1.02;;;;;23.10;95933.00;;;;5096344;28;20228;-54
2023/07/22 11:41:32;;;;;;;0.50;0.50;;;;;23.00;95928.00;;;;5096257;28;20229;-54
2023/07/22 11:44:00;;;;;;;1.23;0.73;;;;;23.20;95928.00;;;;5096332;28;20199;-54
2023/07/22 11:46:28;;;;;;;1.35;1.25;;;;;23.00;95921.00;;;;5097073;28;20635;-55
2023/07/22 11:48:56;;;;;;;0.63;0.63;;;;;23.30;95917.00;;;;5096243;28;20187;-53
2023/07/22 11:51:26;;;;;;;0.93;0.93;;;;;23.20;95909.00;;;;5096443;28;20320;-54
2023/07/22 11:53:55;;;;;;;0.52;0.52;;;;;23.80;95938.00;;;;5096163;28;20191;-54
2023/07/22 11:56:24;;;;;;;1.00;1.00;;;;;23.60;95935.00;;;;5096347;28;20197;-54
2023/07/22 11:58:52;;;;;;;0.40;0.40;;;;;23.00;95917.00;;;;5096068;28;20191;-54
2023/07/22 12:01:21;;;;;;;0.60;0.60;;;;;23.40;95916.00;;;;5096127;28;20214;-54
2023/07/22 12:03:49;;;;;;;0.63;0.63;;;;;24.00;95915.00;;;;5096069;28;20191;-54
2023/07/22 12:06:18;;;;;;;0.70;0.70;;;;;24.40;95906.00;;;;5095875;28;20358;-53
2023/07/22 12:08:48;;;;;;;0.65;0.65;;;;;24.00;95947.00;;;;5096057;28;20558;-54
2023/07/22 12:11:19;;;;;;;0.63;0.63;;;;;24.00;95934.00;;;;5096020;28;20669;-55
2023/07/22 12:13:50;;;;;;;1.08;0.98;;;;;23.10;95908.00;;;;5077577;28;20260;-54
2023/07/22 12:16:24;;;;;;;1.08;1.08;;;;;23.40;95922.00;;;;5096269;28;20183;-54
2023/07/22 12:18:56;;;;;;;0.70;0.70;;;;;23.00;95927.00;;;;5096103;28;20174;-54
2023/07/22 12:21:23;;;;;;;1.23;0.80;;;;;23.30;95930.00;;;;5095164;28;20290;-55
2023/07/22 12:23:53;;;;;;;2.60;0.85;;;;;23.40;95924.00;;;;5095649;28;20256;-55